Time;durP1;ratioP1;P1;durP2;ratioP2;P2;SDS_P1;SDS_P2;PMS_P1;PMS_P2;Temp;Humidity;BMP_temperature;BMP_pressure;BME280_temperature;BME280_humidity;BME280_pressure;Samples;Min_cycle;Max_cycle;Signal;HPM_P1;HPM_P2
2021/12/27 00:01:52;;;;;;;119.03;45.97;;;;;;;;;;5046603;28;20114;-70
2021/12/27 00:04:18;;;;;;;135.18;47.60;;;;;;;;;;5058951;28;20033;-70
2021/12/27 00:06:44;;;;;;;125.30;45.95;;;;;;;;;;5042649;28;20115;-70
2021/12/27 00:09:10;;;;;;;140.30;47.60;;;;;;;;;;5041711;28;20100;-69
2021/12/27 00:11:36;;;;;;;137.73;47.53;;;;;;;;;;5043279;28;20183;-68
2021/12/27 00:14:03;;;;;;;109.43;44.95;;;;;;;;;;5045638;28;20048;-70
2021/12/27 00:16:29;;;;;;;126.88;48.17;;;;;;;;;;5045430;28;20254;-70
2021/12/27 00:18:55;;;;;;;127.05;45.85;;;;;;;;;;5044267;28;20041;-70
2021/12/27 00:21:21;;;;;;;127.55;47.63;;;;;;;;;;5038738;28;20035;-69
2021/12/27 00:23:47;;;;;;;123.50;47.65;;;;;;;;;;5043578;28;20080;-70
2021/12/27 00:26:13;;;;;;;117.32;45.30;;;;;;;;;;5059510;28;20143;-70
2021/12/27 00:28:39;;;;;;;117.13;45.10;;;;;;;;;;5046112;28;20071;-71
2021/12/27 00:31:05;;;;;;;134.70;47.47;;;;;;;;;;5039383;28;20040;-68
2021/12/27 00:33:31;;;;;;;136.45;48.97;;;;;;;;;;5037995;28;20159;-70
2021/12/27 00:35:57;;;;;;;124.65;48.13;;;;;;;;;;5042836;28;20108;-69
2021/12/27 00:38:23;;;;;;;128.82;46.75;;;;;;;;;;5043275;28;20495;-70
2021/12/27 00:40:49;;;;;;;126.13;48.38;;;;;;;;;;5042810;28;20027;-69
2021/12/27 00:43:16;;;;;;;119.25;46.40;;;;;;;;;;5039171;28;20063;-69
2021/12/27 00:45:43;;;;;;;133.13;48.10;;;;;;;;;;5042839;28;20029;-69
2021/12/27 00:48:09;;;;;;;136.48;45.97;;;;;;;;;;5043611;28;20029;-69
2021/12/27 00:50:36;;;;;;;151.40;48.38;;;;;;;;;;5046243;28;20029;-70
2021/12/27 00:53:02;;;;;;;132.35;48.30;;;;;;;;;;5038582;28;20040;-69
2021/12/27 00:55:28;;;;;;;137.57;49.15;;;;;;;;;;5036771;28;20257;-69
2021/12/27 00:57:54;;;;;;;144.93;48.97;;;;;;;;;;5044993;28;20028;-70
2021/12/27 01:00:25;;;;;;;168.32;51.25;;;;;;;;;;5044231;28;20071;-69
2021/12/27 01:02:53;;;;;;;146.70;50.97;;;;;;;;;;5039330;28;20076;-71
2021/12/27 01:05:20;;;;;;;152.98;49.72;;;;;;;;;;5041164;28;20029;-70
2021/12/27 01:07:46;;;;;;;164.98;51.05;;;;;;;;;;5041828;28;20048;-70
2021/12/27 01:12:51;;;;;;;152.60;51.13;;;;;;;;;;5042639;28;20067;-69
2021/12/27 01:17:46;;;;;;;135.07;48.15;;;;;;;;;;5041135;28;20075;-70
2021/12/27 01:20:14;;;;;;;151.75;49.63;;;;;;;;;;5042016;28;20137;-70
2021/12/27 01:22:40;;;;;;;158.45;50.95;;;;;;;;;;5042069;28;20041;-68
2021/12/27 01:25:07;;;;;;;169.70;52.80;;;;;;;;;;5042969;28;20055;-70
2021/12/27 01:27:34;;;;;;;142.25;49.25;;;;;;;;;;5041368;28;20125;-70
2021/12/27 01:30:00;;;;;;;159.13;50.35;;;;;;;;;;5039571;28;20433;-70
2021/12/27 01:32:30;;;;;;;150.80;50.08;;;;;;;;;;5021955;28;20719;-68
2021/12/27 01:34:56;;;;;;;156.68;49.90;;;;;;;;;;5043314;28;20037;-69
2021/12/27 01:37:23;;;;;;;157.88;51.72;;;;;;;;;;5044067;28;20031;-69
2021/12/27 01:39:49;;;;;;;149.20;49.05;;;;;;;;;;5038300;28;20329;-71
2021/12/27 01:42:15;;;;;;;161.98;50.55;;;;;;;;;;5044011;28;20944;-70
2021/12/27 01:44:41;;;;;;;157.45;50.35;;;;;;;;;;5040244;28;20029;-70
2021/12/27 01:47:09;;;;;;;152.13;49.45;;;;;;;;;;5041523;28;20048;-69
2021/12/27 01:49:35;;;;;;;151.07;49.90;;;;;;;;;;5044533;28;20120;-70
2021/12/27 01:52:01;;;;;;;161.52;50.33;;;;;;;;;;5039445;28;20037;-70
2021/12/27 01:54:27;;;;;;;148.27;49.45;;;;;;;;;;5043401;28;20040;-70
2021/12/27 01:56:53;;;;;;;164.48;50.97;;;;;;;;;;5039921;28;20045;-71
2021/12/27 01:59:19;;;;;;;132.02;47.22;;;;;;;;;;5039327;28;20070;-70
2021/12/27 02:01:45;;;;;;;149.32;49.47;;;;;;;;;;5042310;28;20432;-71
2021/12/27 02:04:12;;;;;;;144.20;50.10;;;;;;;;;;5041110;28;20062;-70
2021/12/27 02:06:41;;;;;;;142.98;49.28;;;;;;;;;;5037527;28;20048;-70
2021/12/27 02:09:07;;;;;;;142.35;51.25;;;;;;;;;;5039037;28;20158;-71
2021/12/27 02:11:34;;;;;;;157.23;53.20;;;;;;;;;;5041484;28;20252;-70
2021/12/27 02:14:05;;;;;;;162.90;54.85;;;;;;;;;;5038290;28;20017;-69
2021/12/27 02:16:31;;;;;;;156.48;55.20;;;;;;;;;;5042348;28;20087;-68
2021/12/27 02:18:57;;;;;;;146.18;52.58;;;;;;;;;;5039977;28;20017;-70
2021/12/27 02:21:24;;;;;;;161.80;54.83;;;;;;;;;;5042103;28;20509;-70
2021/12/27 02:23:53;;;;;;;128.75;49.45;;;;;;;;;;5036724;28;20533;-70
2021/12/27 02:26:20;;;;;;;145.48;51.90;;;;;;;;;;5039539;28;20041;-68
2021/12/27 02:28:46;;;;;;;126.57;49.35;;;;;;;;;;5038807;28;20048;-70
2021/12/27 02:31:12;;;;;;;134.93;50.30;;;;;;;;;;5037337;28;20486;-68
2021/12/27 02:33:39;;;;;;;168.93;56.70;;;;;;;;;;5040458;28;20040;-69
2021/12/27 02:36:06;;;;;;;144.25;53.63;;;;;;;;;;5043599;28;20033;-71
2021/12/27 02:38:33;;;;;;;159.07;54.15;;;;;;;;;;5041416;28;20028;-68
2021/12/27 02:41:00;;;;;;;144.55;51.00;;;;;;;;;;5040679;28;20065;-70
2021/12/27 02:43:27;;;;;;;168.45;58.20;;;;;;;;;;5039179;28;20033;-69
2021/12/27 02:45:55;;;;;;;154.45;59.95;;;;;;;;;;5038796;28;20039;-69
2021/12/27 02:48:23;;;;;;;199.95;61.45;;;;;;;;;;5035421;28;20140;-70
2021/12/27 02:50:49;;;;;;;197.00;63.55;;;;;;;;;;5040784;28;20037;-70
2021/12/27 02:53:15;;;;;;;157.50;57.92;;;;;;;;;;5043232;28;20020;-70
2021/12/27 02:55:42;;;;;;;161.20;56.15;;;;;;;;;;5038311;28;20029;-69
2021/12/27 02:58:08;;;;;;;194.57;60.63;;;;;;;;;;5038675;28;20084;-69
2021/12/27 03:00:39;;;;;;;192.68;59.38;;;;;;;;;;5038401;28;20025;-69
2021/12/27 03:03:05;;;;;;;174.98;54.97;;;;;;;;;;5041214;28;20116;-69
2021/12/27 03:05:32;;;;;;;187.40;56.13;;;;;;;;;;5038081;28;20482;-70
2021/12/27 03:07:58;;;;;;;154.35;53.10;;;;;;;;;;5038774;28;20048;-70
2021/12/27 03:10:26;;;;;;;172.77;51.72;;;;;;;;;;5045521;28;20052;-69
2021/12/27 03:12:53;;;;;;;175.15;52.38;;;;;;;;;;5045334;28;20021;-70
2021/12/27 03:15:20;;;;;;;194.77;52.72;;;;;;;;;;5046822;28;20081;-70
2021/12/27 03:17:47;;;;;;;179.82;50.53;;;;;;;;;;5043347;28;20033;-70
2021/12/27 03:20:14;;;;;;;205.55;53.40;;;;;;;;;;5041397;28;20051;-70
2021/12/27 03:22:41;;;;;;;178.45;50.28;;;;;;;;;;5044064;28;20024;-70
2021/12/27 03:25:12;;;;;;;216.48;53.70;;;;;;;;;;5039770;28;20039;-70
2021/12/27 03:27:38;;;;;;;195.00;52.38;;;;;;;;;;5040859;28;20124;-70
2021/12/27 03:30:07;;;;;;;202.88;52.75;;;;;;;;;;5045285;28;20433;-69
2021/12/27 03:32:35;;;;;;;257.17;55.15;;;;;;;;;;5041923;28;20044;-69
2021/12/27 03:35:08;;;;;;;241.65;57.40;;;;;;;;;;5046470;28;20108;-69
2021/12/27 03:37:35;;;;;;;223.25;55.90;;;;;;;;;;5042458;28;20021;-70
2021/12/27 03:40:01;;;;;;;220.75;54.47;;;;;;;;;;5045487;28;20029;-69
2021/12/27 03:42:27;;;;;;;211.45;55.50;;;;;;;;;;5042466;28;20025;-69
2021/12/27 03:44:53;;;;;;;263.00;54.65;;;;;;;;;;5027578;28;20502;-69
2021/12/27 03:47:19;;;;;;;240.63;55.75;;;;;;;;;;5044037;28;20029;-70
2021/12/27 03:49:45;;;;;;;267.17;61.08;;;;;;;;;;5042514;28;20025;-69
2021/12/27 03:52:11;;;;;;;209.40;59.20;;;;;;;;;;5056665;28;20029;-69
2021/12/27 03:54:37;;;;;;;185.23;56.25;;;;;;;;;;5045818;28;20029;-70
2021/12/27 03:57:03;;;;;;;229.57;57.83;;;;;;;;;;5041845;28;20413;-69
2021/12/27 04:02:10;;;;;;;;;;;;;;;;;;5042763;28;20080;-69
2021/12/27 04:04:36;;;;;;;199.90;51.53;;;;;;;;;;5046433;28;19947;-70
2021/12/27 04:07:03;;;;;;;252.13;57.22;;;;;;;;;;5042140;28;20075;-70
2021/12/27 04:09:29;;;;;;;289.50;57.58;;;;;;;;;;5044174;28;20197;-69
2021/12/27 04:11:55;;;;;;;209.32;54.95;;;;;;;;;;5041926;28;20036;-70
2021/12/27 04:14:21;;;;;;;214.32;53.25;;;;;;;;;;5043314;28;20032;-70
2021/12/27 04:16:47;;;;;;;219.80;54.65;;;;;;;;;;5043299;28;20135;-70
2021/12/27 04:19:14;;;;;;;201.05;53.45;;;;;;;;;;5042877;28;20120;-69
2021/12/27 04:21:40;;;;;;;232.73;56.90;;;;;;;;;;5041975;28;20025;-69
2021/12/27 04:24:06;;;;;;;220.73;55.10;;;;;;;;;;5035989;28;20402;-69
2021/12/27 04:26:32;;;;;;;187.98;54.42;;;;;;;;;;5045729;28;20025;-69
2021/12/27 04:28:58;;;;;;;172.48;53.03;;;;;;;;;;5040907;28;20145;-70
2021/12/27 04:31:24;;;;;;;169.27;53.35;;;;;;;;;;5039163;28;20496;-70
2021/12/27 04:33:50;;;;;;;190.50;52.80;;;;;;;;;;5041062;28;20029;-69
2021/12/27 04:36:17;;;;;;;185.50;51.15;;;;;;;;;;5040612;28;20041;-69
2021/12/27 04:38:43;;;;;;;162.57;50.97;;;;;;;;;;5043823;28;20031;-69
2021/12/27 04:41:10;;;;;;;170.82;50.65;;;;;;;;;;5057623;28;20539;-69
2021/12/27 04:43:36;;;;;;;159.18;50.70;;;;;;;;;;5042395;28;20033;-69
2021/12/27 04:46:02;;;;;;;151.57;48.42;;;;;;;;;;5043957;28;20026;-69
2021/12/27 04:48:28;;;;;;;153.32;50.30;;;;;;;;;;5042842;28;20037;-69
2021/12/27 04:50:55;;;;;;;151.68;50.78;;;;;;;;;;5057751;28;20064;-69
2021/12/27 04:53:21;;;;;;;148.23;48.10;;;;;;;;;;5045217;28;20037;-69
2021/12/27 04:55:47;;;;;;;168.20;50.83;;;;;;;;;;5045500;28;20041;-69
2021/12/27 04:58:15;;;;;;;163.02;47.83;;;;;;;;;;5039866;28;20090;-69
2021/12/27 05:00:43;;;;;;;164.55;48.13;;;;;;;;;;5045566;28;20033;-70
2021/12/27 05:03:28;;;;;;;143.07;47.20;;;;;;;;;;5043534;28;20068;-69
2021/12/27 05:05:53;;;;;;;146.88;46.22;;;;;;;;;;5042733;28;20041;-70
2021/12/27 05:08:19;;;;;;;143.90;46.33;;;;;;;;;;5041562;28;20473;-69
2021/12/27 05:10:46;;;;;;;184.48;49.42;;;;;;;;;;5039087;28;20036;-69
2021/12/27 05:13:12;;;;;;;143.80;43.63;;;;;;;;;;5037387;28;20493;-69
2021/12/27 05:15:38;;;;;;;170.32;49.28;;;;;;;;;;5042514;28;20068;-69
2021/12/27 05:18:04;;;;;;;158.38;45.80;;;;;;;;;;5038166;28;20099;-69
2021/12/27 05:20:30;;;;;;;180.02;48.10;;;;;;;;;;5044127;28;20478;-70
2021/12/27 05:22:56;;;;;;;180.05;46.58;;;;;;;;;;5043371;28;20328;-69
2021/12/27 05:25:22;;;;;;;154.13;46.47;;;;;;;;;;5046559;28;20107;-69
2021/12/27 05:27:48;;;;;;;166.68;45.85;;;;;;;;;;5041569;28;20116;-69
2021/12/27 05:30:15;;;;;;;169.45;48.30;;;;;;;;;;5042297;28;20386;-69
2021/12/27 05:32:41;;;;;;;324.65;54.95;;;;;;;;;;5039990;28;20060;-69
2021/12/27 05:35:07;;;;;;;156.10;45.80;;;;;;;;;;5043987;28;20044;-68
2021/12/27 05:37:33;;;;;;;195.32;49.25;;;;;;;;;;5041573;28;20742;-69
2021/12/27 05:40:04;;;;;;;245.65;49.88;;;;;;;;;;5042494;28;20028;-69
2021/12/27 05:42:34;;;;;;;173.50;48.60;;;;;;;;;;5040970;28;20063;-69
2021/12/27 05:45:01;;;;;;;326.92;55.75;;;;;;;;;;5037726;28;20021;-70
2021/12/27 05:47:27;;;;;;;324.27;53.70;;;;;;;;;;5041714;28;20041;-70
2021/12/27 05:49:53;;;;;;;308.92;53.05;;;;;;;;;;5043211;28;20029;-70
2021/12/27 05:52:19;;;;;;;312.17;52.90;;;;;;;;;;5037002;28;20068;-69
2021/12/27 05:54:45;;;;;;;305.50;54.28;;;;;;;;;;5035750;28;20100;-70
2021/12/27 05:57:11;;;;;;;214.73;50.45;;;;;;;;;;5040585;28;20033;-70
2021/12/27 05:59:37;;;;;;;344.05;55.55;;;;;;;;;;5037389;28;20103;-70
2021/12/27 06:02:03;;;;;;;353.15;55.63;;;;;;;;;;5042926;28;20057;-69
2021/12/27 06:04:29;;;;;;;250.77;53.53;;;;;;;;;;5041410;28;20043;-69
2021/12/27 06:06:55;;;;;;;295.95;53.47;;;;;;;;;;5042054;28;20063;-69
2021/12/27 06:09:21;;;;;;;213.90;50.13;;;;;;;;;;5040676;28;20402;-69
2021/12/27 06:11:47;;;;;;;327.27;57.97;;;;;;;;;;5038696;28;20025;-69
2021/12/27 06:14:13;;;;;;;275.27;54.72;;;;;;;;;;5039050;28;20028;-70
2021/12/27 06:16:39;;;;;;;222.05;52.25;;;;;;;;;;5040404;28;20123;-69
2021/12/27 06:19:05;;;;;;;254.98;53.03;;;;;;;;;;5040280;28;20025;-69
2021/12/27 06:21:33;;;;;;;298.67;56.92;;;;;;;;;;5043318;28;20101;-69
2021/12/27 06:23:59;;;;;;;253.77;55.58;;;;;;;;;;5043652;28;20493;-69
2021/12/27 06:26:25;;;;;;;299.55;54.47;;;;;;;;;;5036407;28;20333;-69
2021/12/27 06:28:51;;;;;;;271.33;54.58;;;;;;;;;;5036547;28;20034;-69
2021/12/27 06:31:18;;;;;;;288.30;56.58;;;;;;;;;;5043816;28;20039;-69
2021/12/27 06:33:44;;;;;;;356.48;61.10;;;;;;;;;;5039265;28;20025;-69
2021/12/27 06:36:10;;;;;;;313.10;56.65;;;;;;;;;;5039421;28;20029;-69
2021/12/27 06:38:36;;;;;;;371.02;58.40;;;;;;;;;;5050771;28;20532;-69
2021/12/27 06:41:02;;;;;;;404.58;61.03;;;;;;;;;;5041556;28;20108;-69
2021/12/27 06:43:31;;;;;;;362.90;58.33;;;;;;;;;;5041617;28;20029;-69
2021/12/27 06:45:58;;;;;;;324.50;60.40;;;;;;;;;;5040493;28;20318;-69
2021/12/27 06:48:24;;;;;;;341.73;58.03;;;;;;;;;;5039041;28;20033;-69
2021/12/27 06:50:50;;;;;;;338.38;58.70;;;;;;;;;;5042631;28;20548;-69
2021/12/27 06:53:16;;;;;;;277.40;55.67;;;;;;;;;;5042902;28;20120;-70
2021/12/27 06:55:43;;;;;;;274.98;55.22;;;;;;;;;;5036510;28;20025;-69
2021/12/27 06:58:09;;;;;;;296.85;56.25;;;;;;;;;;5053954;28;20125;-69
2021/12/27 07:00:35;;;;;;;283.60;53.67;;;;;;;;;;5043902;28;20066;-70
2021/12/27 07:03:01;;;;;;;420.55;61.95;;;;;;;;;;5039031;28;20422;-69
2021/12/27 07:05:27;;;;;;;273.42;54.63;;;;;;;;;;5037450;28;20284;-69
2021/12/27 07:07:53;;;;;;;386.88;59.83;;;;;;;;;;5041505;28;20033;-69
2021/12/27 07:10:22;;;;;;;386.83;59.28;;;;;;;;;;5037980;28;20402;-69
2021/12/27 07:12:48;;;;;;;510.17;63.33;;;;;;;;;;5039729;28;20028;-69
2021/12/27 07:15:14;;;;;;;420.73;61.65;;;;;;;;;;5040730;28;20048;-69
2021/12/27 07:17:40;;;;;;;466.90;61.42;;;;;;;;;;5036885;28;20114;-69
2021/12/27 07:20:07;;;;;;;310.80;56.33;;;;;;;;;;5036546;28;20167;-69
2021/12/27 07:22:33;;;;;;;364.80;59.58;;;;;;;;;;5040086;28;20060;-69
2021/12/27 07:24:59;;;;;;;460.27;59.33;;;;;;;;;;5041819;28;20025;-70
2021/12/27 07:27:25;;;;;;;296.02;55.78;;;;;;;;;;5038198;28;20017;-70
2021/12/27 07:29:51;;;;;;;580.42;70.18;;;;;;;;;;5036860;28;20405;-69
2021/12/27 07:32:17;;;;;;;475.63;66.32;;;;;;;;;;5056257;28;20498;-69
2021/12/27 07:34:43;;;;;;;393.35;59.50;;;;;;;;;;5043358;28;20017;-69
2021/12/27 07:37:09;;;;;;;495.33;68.78;;;;;;;;;;5038160;28;20131;-69
2021/12/27 07:39:36;;;;;;;505.45;93.18;;;;;;;;;;5035396;28;20021;-69
2021/12/27 07:42:02;;;;;;;565.00;90.18;;;;;;;;;;5040710;28;20044;-69
2021/12/27 07:44:28;;;;;;;576.28;77.68;;;;;;;;;;5041947;28;20127;-70
2021/12/27 07:46:54;;;;;;;727.08;91.43;;;;;;;;;;5040772;28;20155;-70
2021/12/27 07:49:20;;;;;;;567.55;77.38;;;;;;;;;;5038207;28;20506;-70
2021/12/27 07:51:46;;;;;;;453.48;64.43;;;;;;;;;;5052220;28;20057;-70
2021/12/27 07:54:12;;;;;;;644.28;71.85;;;;;;;;;;5039521;28;20032;-70
2021/12/27 07:56:38;;;;;;;569.30;72.10;;;;;;;;;;5040285;28;20037;-70
2021/12/27 07:59:05;;;;;;;318.60;59.30;;;;;;;;;;5043101;28;20032;-70
2021/12/27 08:01:32;;;;;;;486.80;71.68;;;;;;;;;;5045017;28;20033;-70
2021/12/27 08:03:58;;;;;;;289.75;57.80;;;;;;;;;;5043032;28;20068;-70
2021/12/27 08:06:24;;;;;;;488.13;67.90;;;;;;;;;;5042368;28;20817;-70
2021/12/27 08:08:50;;;;;;;388.02;63.35;;;;;;;;;;5056018;28;20040;-70
2021/12/27 08:11:16;;;;;;;388.35;63.75;;;;;;;;;;5044682;28;20060;-70
2021/12/27 08:13:42;;;;;;;316.23;58.85;;;;;;;;;;5043177;28;20033;-70
2021/12/27 08:16:11;;;;;;;459.02;69.32;;;;;;;;;;5044970;28;20477;-70
2021/12/27 08:18:41;;;;;;;344.98;60.22;;;;;;;;;;5039779;28;20029;-70
2021/12/27 08:21:07;;;;;;;524.25;69.10;;;;;;;;;;5041150;28;20017;-70
2021/12/27 08:23:33;;;;;;;373.85;61.80;;;;;;;;;;5060560;28;20116;-70
2021/12/27 08:25:59;;;;;;;380.75;61.55;;;;;;;;;;5044256;28;20033;-71
2021/12/27 08:28:25;;;;;;;402.95;72.53;;;;;;;;;;5043739;28;20033;-70
2021/12/27 08:30:51;;;;;;;347.50;68.43;;;;;;;;;;5041965;28;20041;-70
2021/12/27 08:33:17;;;;;;;308.70;59.80;;;;;;;;;;5038899;28;20269;-70
2021/12/27 08:35:43;;;;;;;350.48;65.65;;;;;;;;;;5041534;28;20040;-70
2021/12/27 08:38:09;;;;;;;407.85;67.03;;;;;;;;;;5043986;28;20031;-70
2021/12/27 08:40:35;;;;;;;361.08;61.67;;;;;;;;;;5040710;28;20048;-70
2021/12/27 08:43:02;;;;;;;301.88;61.20;;;;;;;;;;5041597;28;20072;-70
2021/12/27 08:45:28;;;;;;;356.00;64.82;;;;;;;;;;5042013;28;20033;-70
2021/12/27 08:47:54;;;;;;;479.55;65.45;;;;;;;;;;5038464;28;20064;-70
2021/12/27 08:50:20;;;;;;;365.02;64.20;;;;;;;;;;5042110;28;20063;-70
2021/12/27 08:52:47;;;;;;;362.17;72.60;;;;;;;;;;5040997;28;20037;-70
2021/12/27 08:55:13;;;;;;;524.83;71.80;;;;;;;;;;5043180;28;20075;-70
2021/12/27 08:57:40;;;;;;;545.28;69.95;;;;;;;;;;5041842;28;20044;-70
2021/12/27 09:00:07;;;;;;;478.33;68.47;;;;;;;;;;5041774;28;20478;-70
2021/12/27 09:02:34;;;;;;;389.52;58.88;;;;;;;;;;5043227;28;20079;-70
2021/12/27 09:05:00;;;;;;;548.90;69.15;;;;;;;;;;5042686;28;20092;-70
2021/12/27 09:07:26;;;;;;;331.83;61.38;;;;;;;;;;5054201;28;20036;-70
2021/12/27 09:09:52;;;;;;;532.65;71.65;;;;;;;;;;5037914;28;20112;-70
2021/12/27 09:12:18;;;;;;;376.67;61.22;;;;;;;;;;5039971;28;20030;-70
2021/12/27 09:14:44;;;;;;;410.90;67.68;;;;;;;;;;5045690;28;20482;-70
2021/12/27 09:17:10;;;;;;;446.95;67.13;;;;;;;;;;5045058;28;20083;-70
2021/12/27 09:19:36;;;;;;;318.60;63.33;;;;;;;;;;5041523;28;20033;-70
2021/12/27 09:22:02;;;;;;;356.70;66.80;;;;;;;;;;5034230;28;20080;-70
2021/12/27 09:24:28;;;;;;;443.10;64.25;;;;;;;;;;5036248;28;20030;-70
2021/12/27 09:26:55;;;;;;;389.92;63.83;;;;;;;;;;5037120;28;20441;-70
2021/12/27 09:29:21;;;;;;;318.38;63.42;;;;;;;;;;5039806;28;20064;-71
2021/12/27 09:31:47;;;;;;;488.35;70.85;;;;;;;;;;5051960;28;20900;-70
2021/12/27 09:34:13;;;;;;;511.67;68.82;;;;;;;;;;5035055;28;20033;-70
2021/12/27 09:36:39;;;;;;;528.78;67.07;;;;;;;;;;5041803;28;20501;-70
2021/12/27 09:39:06;;;;;;;493.83;67.93;;;;;;;;;;5040314;28;20449;-70
2021/12/27 09:41:32;;;;;;;429.60;66.03;;;;;;;;;;5043784;28;20127;-69
2021/12/27 09:43:58;;;;;;;358.52;60.17;;;;;;;;;;5043403;28;20120;-69
2021/12/27 09:46:24;;;;;;;445.77;64.50;;;;;;;;;;5042122;28;20404;-71
2021/12/27 09:48:51;;;;;;;335.95;59.40;;;;;;;;;;5040958;28;20508;-71
2021/12/27 09:51:17;;;;;;;370.02;62.55;;;;;;;;;;5043883;28;20296;-71
2021/12/27 09:53:43;;;;;;;519.88;66.88;;;;;;;;;;5042772;28;20036;-71
2021/12/27 09:56:10;;;;;;;365.00;61.35;;;;;;;;;;5042249;28;20029;-71
2021/12/27 09:58:37;;;;;;;494.45;66.93;;;;;;;;;;5039290;28;20060;-71
2021/12/27 10:01:05;;;;;;;364.40;59.60;;;;;;;;;;5039369;28;20036;-71
2021/12/27 10:03:33;;;;;;;473.90;64.50;;;;;;;;;;5040598;28;20045;-71
2021/12/27 10:06:12;;;;;;;475.70;62.58;;;;;;;;;;5039533;28;20032;-71
2021/12/27 10:08:38;;;;;;;406.08;56.17;;;;;;;;;;5039147;28;20079;-70
2021/12/27 10:11:04;;;;;;;449.88;58.95;;;;;;;;;;5040054;28;20040;-71
2021/12/27 10:13:30;;;;;;;403.88;59.70;;;;;;;;;;5039076;28;20079;-71
2021/12/27 10:15:56;;;;;;;372.75;55.63;;;;;;;;;;5042482;28;20120;-71
2021/12/27 10:18:23;;;;;;;437.20;56.33;;;;;;;;;;5055078;28;20041;-71
2021/12/27 10:20:50;;;;;;;363.70;59.33;;;;;;;;;;5036560;28;20029;-71
2021/12/27 10:23:18;;;;;;;335.65;59.90;;;;;;;;;;5052524;28;20036;-72
2021/12/27 10:25:47;;;;;;;349.63;62.65;;;;;;;;;;5039550;28;20033;-72
2021/12/27 10:28:13;;;;;;;338.20;62.90;;;;;;;;;;5041485;28;20056;-71
2021/12/27 10:30:45;;;;;;;288.17;57.65;;;;;;;;;;5039819;28;20541;-70
2021/12/27 10:33:24;;;;;;;288.45;56.60;;;;;;;;;;5039570;28;20028;-72
2021/12/27 10:35:52;;;;;;;256.00;55.97;;;;;;;;;;5039837;28;20071;-72
2021/12/27 10:38:24;;;;;;;209.07;48.70;;;;;;;;;;5037599;28;20021;-72
2021/12/27 10:40:56;;;;;;;276.60;53.80;;;;;;;;;;5042168;28;20021;-71
2021/12/27 10:43:38;;;;;;;288.95;56.88;;;;;;;;;;5039508;28;20041;-71
2021/12/27 10:46:05;;;;;;;253.23;58.83;;;;;;;;;;5042062;28;20079;-71
2021/12/27 10:48:33;;;;;;;314.33;57.63;;;;;;;;;;5041099;28;20060;-71
2021/12/27 10:50:59;;;;;;;224.10;53.08;;;;;;;;;;5040809;28;20341;-71
2021/12/27 10:53:25;;;;;;;301.40;60.00;;;;;;;;;;5043077;28;20219;-70
2021/12/27 10:55:51;;;;;;;259.27;46.22;;;;;;;;;;5036091;28;20029;-70
2021/12/27 10:58:30;;;;;;;230.60;42.38;;;;;;;;;;5040740;28;20037;-70
2021/12/27 11:00:56;;;;;;;211.63;42.75;;;;;;;;;;5034981;28;20037;-71
2021/12/27 11:03:36;;;;;;;237.07;52.58;;;;;;;;;;5039563;28;20033;-70
2021/12/27 11:06:04;;;;;;;337.10;52.30;;;;;;;;;;5040502;28;20037;-70
2021/12/27 11:08:30;;;;;;;263.13;44.38;;;;;;;;;;5040230;28;20033;-70
2021/12/27 11:10:56;;;;;;;332.85;48.20;;;;;;;;;;5040719;28;20041;-70
2021/12/27 11:13:23;;;;;;;290.08;56.78;;;;;;;;;;5039340;28;20048;-70
2021/12/27 11:15:49;;;;;;;317.45;55.75;;;;;;;;;;5038025;28;20032;-70
2021/12/27 11:18:15;;;;;;;310.98;54.90;;;;;;;;;;5036342;28;20094;-70
2021/12/27 11:20:46;;;;;;;221.48;60.03;;;;;;;;;;5041315;28;20509;-70
2021/12/27 11:23:13;;;;;;;155.60;48.47;;;;;;;;;;5035290;28;20036;-69
2021/12/27 11:25:41;;;;;;;154.23;51.80;;;;;;;;;;5043955;28;20048;-70
2021/12/27 11:28:25;;;;;;;150.73;51.10;;;;;;;;;;5038016;28;20030;-70
2021/12/27 11:30:51;;;;;;;128.77;44.10;;;;;;;;;;5037630;28;20029;-70
2021/12/27 11:33:20;;;;;;;111.22;44.13;;;;;;;;;;5041058;28;20037;-70
2021/12/27 11:35:52;;;;;;;111.70;42.65;;;;;;;;;;5044253;28;20108;-70
2021/12/27 11:38:32;;;;;;;107.03;42.22;;;;;;;;;;5043333;28;20025;-71
2021/12/27 11:40:59;;;;;;;102.40;43.63;;;;;;;;;;5045633;28;20040;-71
2021/12/27 11:43:25;;;;;;;92.22;40.05;;;;;;;;;;5036606;28;20040;-70
2021/12/27 11:45:53;;;;;;;95.55;41.40;;;;;;;;;;5042037;28;20059;-70
2021/12/27 11:48:20;;;;;;;93.30;42.08;;;;;;;;;;5034708;28;20408;-70
2021/12/27 11:51:09;;;;;;;84.43;39.40;;;;;;;;;;5044131;28;20214;-70
2021/12/27 11:53:37;;;;;;;86.30;41.53;;;;;;;;;;5041049;28;20064;-70
2021/12/27 11:56:08;;;;;;;91.82;42.63;;;;;;;;;;5043175;28;20029;-70
2021/12/27 11:58:35;;;;;;;;;;;;;;;;;;5035049;28;20100;-70
2021/12/27 12:01:37;;;;;;;81.25;39.80;;;;;;;;;;5041243;28;19916;-70
2021/12/27 12:04:03;;;;;;;77.85;38.70;;;;;;;;;;4964163;28;20047;-70
2021/12/27 12:06:40;;;;;;;81.45;39.58;;;;;;;;;;5024910;28;20124;-70
2021/12/27 12:09:24;;;;;;;78.95;39.80;;;;;;;;;;5039927;28;20025;-70
2021/12/27 12:12:08;;;;;;;69.80;36.72;;;;;;;;;;5033751;28;20036;-70
2021/12/27 12:14:35;;;;;;;64.25;36.70;;;;;;;;;;5042003;28;20053;-70
2021/12/27 12:17:03;;;;;;;64.25;36.60;;;;;;;;;;5044199;28;20037;-70
2021/12/27 12:19:34;;;;;;;70.50;37.90;;;;;;;;;;5043259;28;20397;-70
2021/12/27 12:22:00;;;;;;;68.82;37.83;;;;;;;;;;5040884;28;20072;-70
2021/12/27 12:24:26;;;;;;;65.10;35.63;;;;;;;;;;5036028;28;20037;-70
2021/12/27 12:26:58;;;;;;;57.13;34.67;;;;;;;;;;5046008;28;20029;-72
2021/12/27 12:29:25;;;;;;;53.03;31.67;;;;;;;;;;5042972;28;20048;-71
2021/12/27 12:32:03;;;;;;;54.63;31.70;;;;;;;;;;5037123;28;20086;-71
2021/12/27 12:34:29;;;;;;;49.40;30.40;;;;;;;;;;5038769;28;20033;-72
2021/12/27 12:37:02;;;;;;;45.83;28.20;;;;;;;;;;5036871;28;20122;-70
2021/12/27 12:39:37;;;;;;;43.88;27.75;;;;;;;;;;5033115;28;20558;-72
2021/12/27 12:42:05;;;;;;;43.17;28.15;;;;;;;;;;5036560;28;20053;-72
2021/12/27 12:44:31;;;;;;;43.50;26.67;;;;;;;;;;5035575;28;20494;-69
2021/12/27 12:46:59;;;;;;;40.67;26.48;;;;;;;;;;5040393;28;20175;-72
2021/12/27 12:49:26;;;;;;;38.95;25.00;;;;;;;;;;5034865;28;20036;-71
2021/12/27 12:51:56;;;;;;;40.25;24.58;;;;;;;;;;5038015;28;20029;-71
2021/12/27 12:54:22;;;;;;;37.95;24.08;;;;;;;;;;5037138;28;20076;-72
2021/12/27 12:56:55;;;;;;;34.22;23.13;;;;;;;;;;5037874;28;20291;-71
2021/12/27 12:59:23;;;;;;;35.22;23.70;;;;;;;;;;5037727;28;20025;-71
2021/12/27 13:01:56;;;;;;;34.72;23.15;;;;;;;;;;5038762;28;20070;-71
2021/12/27 13:04:23;;;;;;;30.05;21.27;;;;;;;;;;5040871;28;20048;-71
2021/12/27 13:06:49;;;;;;;34.17;22.92;;;;;;;;;;5037195;28;20048;-72
2021/12/27 13:09:15;;;;;;;33.33;21.95;;;;;;;;;;5040899;28;20028;-71
2021/12/27 13:11:41;;;;;;;33.08;20.35;;;;;;;;;;5037697;28;20037;-71
2021/12/27 13:14:07;;;;;;;31.27;21.10;;;;;;;;;;5038079;28;20162;-71
2021/12/27 13:16:34;;;;;;;31.67;20.58;;;;;;;;;;5054582;28;20065;-71
2021/12/27 13:19:08;;;;;;;29.35;20.13;;;;;;;;;;5039550;28;20021;-71
2021/12/27 13:21:34;;;;;;;27.73;18.27;;;;;;;;;;5043274;28;20043;-72
2021/12/27 13:24:04;;;;;;;29.83;19.42;;;;;;;;;;5036898;28;20044;-72
2021/12/27 13:26:30;;;;;;;26.52;18.77;;;;;;;;;;5034102;28;20026;-72
2021/12/27 13:28:56;;;;;;;30.02;19.60;;;;;;;;;;5037838;28;20048;-72
2021/12/27 13:31:26;;;;;;;35.03;19.73;;;;;;;;;;5040804;28;20021;-72
2021/12/27 13:33:52;;;;;;;30.63;19.63;;;;;;;;;;5039993;28;20032;-72
2021/12/27 13:36:36;;;;;;;25.35;17.75;;;;;;;;;;5040067;28;20025;-72
2021/12/27 13:39:13;;;;;;;26.75;17.92;;;;;;;;;;5034077;28;20052;-72
2021/12/27 13:41:42;;;;;;;28.42;18.52;;;;;;;;;;5030726;28;20075;-70
2021/12/27 13:44:09;;;;;;;32.67;22.20;;;;;;;;;;5033825;28;20102;-72
2021/12/27 13:46:37;;;;;;;32.63;19.83;;;;;;;;;;5036885;28;20143;-72
2021/12/27 13:49:04;;;;;;;29.08;19.27;;;;;;;;;;5033778;28;20025;-72
2021/12/27 13:51:32;;;;;;;28.88;20.67;;;;;;;;;;5043990;28;20021;-71
2021/12/27 13:54:00;;;;;;;32.65;19.85;;;;;;;;;;5035266;28;20087;-71
2021/12/27 13:56:26;;;;;;;28.88;20.02;;;;;;;;;;5031561;28;20520;-71
2021/12/27 13:58:53;;;;;;;28.38;19.77;;;;;;;;;;5031771;28;20030;-71
2021/12/27 14:01:22;;;;;;;29.67;20.50;;;;;;;;;;5034295;28;20024;-71
2021/12/27 14:03:49;;;;;;;32.10;19.80;;;;;;;;;;5040040;28;20053;-72
2021/12/27 14:06:16;;;;;;;34.42;20.42;;;;;;;;;;5034710;28;20129;-71
2021/12/27 14:08:56;;;;;;;34.30;19.83;;;;;;;;;;5036852;28;20191;-71
2021/12/27 14:11:22;;;;;;;33.80;20.92;;;;;;;;;;5032023;28;20446;-70
2021/12/27 14:13:56;;;;;;;30.05;20.85;;;;;;;;;;5039954;28;20032;-71
2021/12/27 14:16:24;;;;;;;29.77;18.85;;;;;;;;;;5037392;28;20067;-72
2021/12/27 14:19:19;;;;;;;28.25;19.35;;;;;;;;;;5036936;28;20030;-72